createdAt,value
2018-02-01T00:01:51.528Z,96647.72
2018-02-01T00:04:20.564Z,96651.94
2018-02-01T00:06:48.825Z,96669.94
2018-02-01T00:09:17.079Z,96667.45
2018-02-01T00:11:46.130Z,96658.23
2018-02-01T00:14:14.373Z,96675.38
2018-02-01T00:16:42.642Z,96675.80
2018-02-01T00:19:10.892Z,96663.28
2018-02-01T00:21:39.916Z,96663.27
2018-02-01T00:24:08.165Z,96657.42
2018-02-01T00:26:36.437Z,96657.02
2018-02-01T00:29:05.464Z,96648.67
2018-02-01T00:31:33.724Z,96641.13
2018-02-01T00:34:01.983Z,96642.80
2018-02-01T00:36:31.017Z,96633.61
2018-02-01T00:38:59.273Z,96644.05
2018-02-01T00:41:27.553Z,96639.04
2018-02-01T00:43:55.852Z,96639.06
2018-02-01T00:46:24.107Z,96635.29
2018-02-01T00:48:52.392Z,96637.80
2018-02-01T00:51:20.652Z,96631.53
2018-02-01T00:53:48.929Z,96638.22
2018-02-01T00:56:17.201Z,96642.80
2018-02-01T00:58:45.499Z,96639.87
2018-02-01T01:01:13.768Z,96636.97
2018-02-01T01:03:42.043Z,96634.03
2018-02-01T01:06:10.304Z,96645.73
2018-02-01T01:08:38.563Z,96644.91
2018-02-01T01:11:07.595Z,96641.14
2018-02-01T01:13:35.884Z,96641.97
2018-02-01T01:16:04.188Z,96644.88
2018-02-01T01:18:32.468Z,96642.36
2018-02-01T01:21:01.505Z,96641.94
2018-02-01T01:23:29.777Z,96636.95
2018-02-01T01:25:58.059Z,96637.79
2018-02-01T01:28:26.329Z,96641.55
2018-02-01T01:30:54.588Z,96644.03
2018-02-01T01:33:22.857Z,96635.69
2018-02-01T01:35:51.904Z,96635.66
2018-02-01T01:38:20.161Z,96636.95
2018-02-01T01:40:48.440Z,96639.86
2018-02-01T01:43:16.761Z,96632.77
2018-02-01T01:46:02.760Z,96641.09
2018-02-01T01:48:31.807Z,96640.70
2018-02-01T01:51:00.067Z,96636.94
2018-02-01T01:53:28.349Z,96630.67
2018-02-01T01:55:56.621Z,96632.75
2018-02-01T01:58:24.881Z,96634.02
2018-02-01T02:00:53.988Z,96635.24
2018-02-01T02:03:22.260Z,96636.50
2018-02-01T02:05:50.509Z,96636.10
2018-02-01T02:08:19.536Z,96638.61
2018-02-01T02:10:47.781Z,96639.00
2018-02-01T02:13:16.058Z,96640.25
2018-02-01T02:15:45.106Z,96638.14
2018-02-01T02:18:13.395Z,96642.76
2018-02-01T02:20:41.677Z,96652.34
2018-02-01T02:23:09.954Z,96648.98
2018-02-01T02:25:38.236Z,96654.83
2018-02-01T02:28:06.498Z,96649.84
2018-02-01T02:30:34.813Z,96654.00
2018-02-01T02:33:03.871Z,96655.66
2018-02-01T02:35:32.209Z,96658.55
2018-02-01T02:38:01.243Z,96653.97
2018-02-01T02:40:29.528Z,96648.13
2018-02-01T02:42:57.831Z,96650.20
2018-02-01T02:45:26.951Z,96654.34
2018-02-01T02:47:55.237Z,96659.34
2018-02-01T02:50:23.533Z,96651.02
2018-02-01T02:52:51.877Z,96646.84
2018-02-01T02:55:20.168Z,96646.03
2018-02-01T02:57:48.455Z,96646.42
2018-02-01T03:00:16.729Z,96650.61
2018-02-01T03:02:45.034Z,96643.94
2018-02-01T03:05:13.314Z,96648.09
2018-02-01T03:07:41.592Z,96648.94
2018-02-01T03:10:09.885Z,96649.34
2018-02-01T03:12:38.934Z,96653.12
2018-02-01T03:15:07.233Z,96652.70
2018-02-01T03:17:35.509Z,96650.59
2018-02-01T03:20:03.787Z,96653.11
2018-02-01T03:22:32.120Z,96654.75
2018-02-01T03:25:00.412Z,96656.83
2018-02-01T03:27:28.728Z,96646.83
2018-02-01T03:29:57.027Z,96650.58
2018-02-01T03:32:25.318Z,96645.15
2018-02-01T03:34:53.606Z,96638.47
2018-02-01T03:37:21.879Z,96641.75
2018-02-01T03:39:50.214Z,96630.88
2018-02-01T03:42:19.262Z,96635.09
2018-02-01T03:44:47.551Z,96623.00
2018-02-01T03:47:15.843Z,96633.38
2018-02-01T03:49:44.146Z,96631.72
2018-02-01T03:52:13.168Z,96640.05
2018-02-01T03:54:41.455Z,96647.97
2018-02-01T03:57:09.735Z,96648.39
2018-02-01T03:59:38.004Z,96650.05
2018-02-01T04:02:06.272Z,96658.39
2018-02-01T04:04:34.533Z,96647.13
2018-02-01T04:07:02.801Z,96662.57
2018-02-01T04:09:31.092Z,96655.86
2018-02-01T04:11:59.363Z,96662.13
2018-02-01T04:14:27.627Z,96667.52
2018-02-01T04:16:56.673Z,96664.61
2018-02-01T04:19:24.954Z,96664.59
2018-02-01T04:21:53.240Z,96670.84
2018-02-01T04:24:21.547Z,96669.55
2018-02-01T04:26:50.580Z,96668.33
2018-02-01T04:29:18.828Z,96665.39
2018-02-01T04:31:47.099Z,96652.08
2018-02-01T04:34:15.381Z,96660.41
2018-02-01T04:36:43.680Z,96668.30
2018-02-01T04:39:11.987Z,96663.35
2018-02-01T04:41:40.259Z,96667.95
2018-02-01T04:44:08.547Z,96671.27
2018-02-01T04:46:36.839Z,96667.15
2018-02-01T04:49:05.936Z,96665.42
2018-02-01T04:51:34.980Z,96675.86
2018-02-01T04:54:03.261Z,96669.20
2018-02-01T04:56:31.528Z,96667.98
2018-02-01T04:58:59.799Z,96665.88
2018-02-01T05:01:28.079Z,96670.05
2018-02-01T05:03:56.359Z,96665.45
2018-02-01T05:06:24.634Z,96666.73
2018-02-01T05:08:52.891Z,96662.98
2018-02-01T05:11:21.148Z,96660.02
2018-02-01T05:13:49.432Z,96650.86
2018-02-01T05:16:17.698Z,96658.33
2018-02-01T05:18:47.578Z,96652.53
2018-02-01T05:21:15.858Z,96657.09
2018-02-01T05:23:44.107Z,96670.02
2018-02-01T05:26:12.368Z,96660.83
2018-02-01T05:28:40.639Z,96666.67
2018-02-01T05:31:08.913Z,96667.88
2018-02-01T05:33:37.183Z,96678.31
2018-02-01T05:36:05.450Z,96684.14
2018-02-01T05:38:33.718Z,96679.14
2018-02-01T05:41:02.751Z,96680.41
2018-02-01T05:43:31.070Z,96675.84
2018-02-01T05:46:00.118Z,96676.63
2018-02-01T05:48:28.368Z,96677.50
2018-02-01T05:50:56.639Z,96681.64
2018-02-01T05:53:24.920Z,96677.05
2018-02-01T05:55:53.178Z,96669.98
2018-02-01T05:58:21.431Z,96671.64
2018-02-01T06:00:49.690Z,96679.13
2018-02-01T06:03:17.946Z,96682.00
2018-02-01T06:05:46.208Z,96684.04
2018-02-01T06:08:14.473Z,96688.66
2018-02-01T06:10:42.730Z,96679.48
2018-02-01T06:13:11.008Z,96679.86
2018-02-01T06:15:40.034Z,96669.05
2018-02-01T06:18:08.305Z,96673.17
2018-02-01T06:20:36.539Z,96676.91
2018-02-01T06:23:04.785Z,96669.03
2018-02-01T06:25:33.034Z,96673.61
2018-02-01T06:28:01.318Z,96675.25
2018-02-01T06:30:29.563Z,96668.63
2018-02-01T06:32:57.802Z,96669.86
2018-02-01T06:35:26.049Z,96670.23
2018-02-01T06:37:54.344Z,96671.05
2018-02-01T06:40:22.593Z,96669.46
2018-02-01T06:42:50.868Z,96668.96
2018-02-01T06:45:19.139Z,96675.23
2018-02-01T06:47:47.413Z,96674.84
2018-02-01T06:50:21.503Z,96676.46
2018-02-01T06:52:50.170Z,96671.87
2018-02-01T06:55:19.182Z,96672.73
2018-02-01T06:57:47.440Z,96674.33
2018-02-01T07:00:16.466Z,96673.48
2018-02-01T07:02:44.716Z,96682.67
2018-02-01T07:05:13.732Z,96684.26
2018-02-01T07:07:41.979Z,96675.91
2018-02-01T07:10:10.993Z,96679.70
2018-02-01T07:12:39.268Z,96683.03
2018-02-01T07:15:07.531Z,96690.86
2018-02-01T07:17:35.812Z,96683.91
2018-02-01T07:20:04.109Z,96685.48
2018-02-01T07:22:32.385Z,96687.17
2018-02-01T07:25:00.655Z,96692.50
2018-02-01T07:27:28.904Z,96691.27
2018-02-01T07:29:57.943Z,96692.03
2018-02-01T07:32:26.204Z,96685.77
2018-02-01T07:34:54.465Z,96692.90
2018-02-01T07:37:22.713Z,96691.20
2018-02-01T07:39:51.735Z,96693.61
2018-02-01T07:42:19.991Z,96694.95
2018-02-01T07:44:49.011Z,96694.95
2018-02-01T07:47:17.261Z,96694.13
2018-02-01T07:49:46.294Z,96702.81
2018-02-01T07:52:14.559Z,96704.09
2018-02-01T07:54:42.824Z,96703.70
2018-02-01T07:57:11.071Z,96705.85
2018-02-01T07:59:40.076Z,96708.37
2018-02-01T08:02:08.350Z,96716.22
2018-02-01T08:04:37.384Z,96716.68
2018-02-01T08:07:05.633Z,96721.67
2018-02-01T08:09:33.883Z,96723.83
2018-02-01T08:12:02.902Z,96735.10
2018-02-01T08:14:31.184Z,96733.83
2018-02-01T08:16:59.453Z,96726.80
2018-02-01T08:19:27.697Z,96728.83
2018-02-01T08:21:55.953Z,96728.89
2018-02-01T08:24:24.196Z,96733.45
2018-02-01T08:26:52.447Z,96727.64
2018-02-01T08:29:21.482Z,96727.70
2018-02-01T08:31:49.755Z,96735.95
2018-02-01T08:34:18.013Z,96733.06
2018-02-01T08:36:46.258Z,96734.75
2018-02-01T08:39:15.297Z,96733.92
2018-02-01T08:41:43.546Z,96731.02
2018-02-01T08:44:11.897Z,96735.12
2018-02-01T08:46:40.176Z,96749.33
2018-02-01T08:49:08.431Z,96746.41
2018-02-01T08:51:36.728Z,96744.06
2018-02-01T08:54:12.142Z,96743.16
2018-02-01T08:56:40.406Z,96744.42
2018-02-01T08:59:08.663Z,96742.91
2018-02-01T09:01:36.949Z,96750.42
2018-02-01T09:04:05.260Z,96752.84
2018-02-01T09:06:33.511Z,96763.74
2018-02-01T09:09:02.563Z,96764.67
2018-02-01T09:11:30.863Z,96751.25
2018-02-01T09:13:59.867Z,96756.25
2018-02-01T09:16:28.149Z,96761.71
2018-02-01T09:18:56.437Z,96766.63
2018-02-01T09:21:24.720Z,96769.13
2018-02-01T09:23:52.980Z,96757.23
2018-02-01T09:26:21.245Z,96760.48
2018-02-01T09:28:49.594Z,96766.00
2018-02-01T09:31:17.808Z,96775.45
2018-02-01T09:33:46.101Z,96774.66
2018-02-01T09:36:14.395Z,96784.41
2018-02-01T09:38:43.424Z,96782.00
2018-02-01T09:41:11.718Z,96778.57
2018-02-01T09:43:39.993Z,96777.25
2018-02-01T09:46:08.282Z,96775.66
2018-02-01T09:48:36.572Z,96784.02
2018-02-01T09:51:04.865Z,96782.73
2018-02-01T09:53:33.911Z,96789.52
2018-02-01T09:56:02.200Z,96801.13
2018-02-01T09:58:30.504Z,96805.40
2018-02-01T10:00:58.788Z,96815.52
2018-02-01T10:03:27.843Z,96816.34
2018-02-01T10:05:56.115Z,96820.05
2018-02-01T10:08:24.384Z,96819.20
2018-02-01T10:10:52.662Z,96823.04
2018-02-01T10:13:20.966Z,96821.50
2018-02-01T10:15:49.329Z,96813.05
2018-02-01T10:18:17.604Z,96817.66
2018-02-01T10:20:45.866Z,96806.78
2018-02-01T10:23:14.135Z,96811.48
2018-02-01T10:25:42.404Z,96814.36
2018-02-01T10:28:10.680Z,96808.50
2018-02-01T10:30:38.964Z,96807.98
2018-02-01T10:33:07.236Z,96795.48
2018-02-01T10:35:35.543Z,96795.08
2018-02-01T10:38:03.822Z,96787.16
2018-02-01T10:40:32.080Z,96788.08
2018-02-01T10:43:00.384Z,96787.91
2018-02-01T10:45:28.707Z,96787.17
2018-02-01T10:47:56.996Z,96787.23
2018-02-01T10:50:25.331Z,96794.73
2018-02-01T10:52:53.592Z,96792.18
2018-02-01T10:55:21.866Z,96795.44
2018-02-01T10:57:50.143Z,96790.11
2018-02-01T11:00:18.447Z,96787.59
2018-02-01T11:02:47.508Z,96799.17
2018-02-01T11:05:15.819Z,96789.61
2018-02-01T11:07:44.899Z,96786.28
2018-02-01T11:10:13.163Z,96789.12
2018-02-01T11:12:41.448Z,96789.96
2018-02-01T11:15:09.745Z,96794.94
2018-02-01T11:17:38.059Z,96796.13
2018-02-01T11:20:06.328Z,96802.47
2018-02-01T11:22:34.611Z,96793.83
2018-02-01T11:25:02.895Z,96795.81
2018-02-01T11:27:31.202Z,96784.84
2018-02-01T11:29:59.478Z,96778.56
2018-02-01T11:32:27.757Z,96780.23
2018-02-01T11:34:56.043Z,96779.81
2018-02-01T11:37:25.084Z,96774.81
2018-02-01T11:39:53.433Z,96768.58
2018-02-01T11:42:21.726Z,96771.57
2018-02-01T11:44:50.150Z,96764.30
2018-02-01T11:47:18.429Z,96765.80
2018-02-01T11:49:46.729Z,96767.56
2018-02-01T11:52:15.793Z,96755.11
2018-02-01T11:54:44.071Z,96752.67
2018-02-01T11:57:12.331Z,96745.59
2018-02-01T11:59:40.604Z,96754.36
2018-02-01T12:02:08.894Z,96763.15
2018-02-01T12:04:37.158Z,96757.73
2018-02-01T12:07:05.458Z,96746.44
2018-02-01T12:09:34.508Z,96750.62
2018-02-01T12:12:02.797Z,96744.77
2018-02-01T12:14:31.069Z,96739.33
2018-02-01T12:16:59.362Z,96737.07
2018-02-01T12:19:27.673Z,96734.30
2018-02-01T12:21:56.734Z,96734.64
2018-02-01T12:24:25.048Z,96744.34
2018-02-01T12:26:54.086Z,96756.06
2018-02-01T12:29:22.406Z,96747.83
2018-02-01T12:31:51.503Z,96729.63
2018-02-01T12:34:20.567Z,96731.60
2018-02-01T12:36:48.880Z,96719.23
2018-02-01T12:39:17.950Z,96718.09
2018-02-01T12:41:46.267Z,96722.04
2018-02-01T12:44:14.591Z,96735.22
2018-02-01T12:46:42.913Z,96734.48
2018-02-01T12:49:11.231Z,96735.68
2018-02-01T12:51:48.363Z,96730.06
2018-02-01T12:54:17.402Z,96724.26
2018-02-01T12:56:45.667Z,96747.19
2018-02-01T12:59:13.965Z,96736.89
2018-02-01T13:01:42.246Z,96727.38
2018-02-01T13:04:10.503Z,96730.52
2018-02-01T13:06:38.811Z,96743.48
2018-02-01T13:09:07.061Z,96753.09
2018-02-01T13:11:35.367Z,96751.45
2018-02-01T13:14:03.649Z,96745.59
2018-02-01T13:16:31.951Z,96740.58
2018-02-01T13:19:00.254Z,96750.20
2018-02-01T13:21:28.527Z,96747.25
2018-02-01T13:23:56.796Z,96742.27
2018-02-01T13:26:25.096Z,96743.93
2018-02-01T13:28:53.362Z,96754.37
2018-02-01T13:31:21.669Z,96751.84
2018-02-01T13:33:49.980Z,96758.56
2018-02-01T13:36:19.072Z,96763.53
2018-02-01T13:38:48.128Z,96762.31
2018-02-01T13:41:16.476Z,96768.17
2018-02-01T13:43:44.781Z,96768.60
2018-02-01T13:46:13.086Z,96763.97
2018-02-01T13:48:41.423Z,96767.33
2018-02-01T13:51:09.692Z,96760.66
2018-02-01T13:53:38.013Z,96757.28
2018-02-01T13:56:06.302Z,96767.33
2018-02-01T13:58:35.365Z,96745.23
2018-02-01T14:01:03.653Z,96759.36
2018-02-01T14:03:31.931Z,96768.17
2018-02-01T14:06:00.209Z,96775.69
2018-02-01T14:08:28.505Z,96787.79
2018-02-01T14:10:56.855Z,96779.02
2018-02-01T14:13:25.217Z,96781.45
2018-02-01T14:15:53.530Z,96774.76
2018-02-01T14:18:21.815Z,96770.55
2018-02-01T14:20:50.909Z,96780.95
2018-02-01T14:23:19.969Z,96793.01
2018-02-01T14:25:48.249Z,96786.42
2018-02-01T14:28:16.537Z,96796.34
2018-02-01T14:30:44.806Z,96790.11
2018-02-01T14:33:13.903Z,96783.01
2018-02-01T14:35:42.298Z,96794.23
2018-02-01T14:38:11.386Z,96793.39
2018-02-01T14:40:39.698Z,96794.68
2018-02-01T14:43:08.031Z,96796.78
2018-02-01T14:45:36.358Z,96796.38
2018-02-01T14:48:04.669Z,96800.95
2018-02-01T14:50:33.020Z,96800.76
2018-02-01T14:53:01.315Z,96803.86
2018-02-01T14:55:29.662Z,96800.95
2018-02-01T14:57:57.933Z,96802.07
2018-02-01T15:00:26.222Z,96801.64
2018-02-01T15:02:54.505Z,96798.00
2018-02-01T15:05:22.788Z,96798.00
2018-02-01T15:07:51.073Z,96797.22
2018-02-01T15:10:19.358Z,96805.13
2018-02-01T15:12:47.734Z,96813.53
2018-02-01T15:15:16.785Z,96808.88
2018-02-01T15:17:45.103Z,96810.63
2018-02-01T15:20:13.398Z,96801.09
2018-02-01T15:22:41.701Z,96788.59
2018-02-01T15:25:10.002Z,96792.27
2018-02-01T15:27:38.289Z,96801.08
2018-02-01T15:30:06.587Z,96810.64
2018-02-01T15:32:34.865Z,96804.02
2018-02-01T15:35:03.132Z,96798.16
2018-02-01T15:37:31.420Z,96794.42
2018-02-01T15:39:59.685Z,96799.80
2018-02-01T15:42:27.997Z,96800.63
2018-02-01T15:44:57.039Z,96798.98
2018-02-01T15:47:25.334Z,96798.56
2018-02-01T15:49:53.629Z,96799.46
2018-02-01T15:52:21.964Z,96794.44
2018-02-01T15:54:50.273Z,96794.85
2018-02-01T15:57:18.569Z,96800.70
2018-02-01T15:59:46.872Z,96797.75
2018-02-01T16:02:15.168Z,96796.09
2018-02-01T16:04:43.437Z,96802.77
2018-02-01T16:07:11.703Z,96797.33
2018-02-01T16:09:39.984Z,96795.62
2018-02-01T16:12:08.274Z,96791.42
2018-02-01T16:14:36.589Z,96794.34
2018-02-01T16:17:04.867Z,96799.77
2018-02-01T16:19:33.165Z,96803.91
2018-02-01T16:22:01.458Z,96804.73
2018-02-01T16:24:29.736Z,96811.76
2018-02-01T16:26:58.030Z,96816.73
2018-02-01T16:29:26.324Z,96820.07
2018-02-01T16:31:54.613Z,96802.13
2018-02-01T16:34:22.939Z,96813.36
2018-02-01T16:36:51.175Z,96820.01
2018-02-01T16:39:19.514Z,96814.55
2018-02-01T16:41:48.567Z,96812.83
2018-02-01T16:44:17.672Z,96805.77
2018-02-01T16:46:46.760Z,96809.08
2018-02-01T16:49:15.827Z,96811.09
2018-02-01T16:51:44.152Z,96811.52
2018-02-01T16:54:12.463Z,96808.56
2018-02-01T16:56:40.816Z,96806.87
2018-02-01T16:59:09.105Z,96812.27
2018-02-01T17:01:37.484Z,96811.77
2018-02-01T17:04:05.784Z,96812.16
2018-02-01T17:06:34.097Z,96822.52
2018-02-01T17:09:03.190Z,96816.63
2018-02-01T17:11:32.249Z,96820.80
2018-02-01T17:14:00.545Z,96822.83
2018-02-01T17:16:28.846Z,96821.91
2018-02-01T17:18:57.956Z,96820.30
2018-02-01T17:21:26.211Z,96816.99
2018-02-01T17:23:55.380Z,96826.48
2018-02-01T17:26:23.689Z,96832.70
2018-02-01T17:28:52.003Z,96849.32
2018-02-01T17:31:21.068Z,96836.47
2018-02-01T17:33:49.387Z,96835.64
2018-02-01T17:36:17.734Z,96832.79
2018-02-01T17:38:46.794Z,96838.20
2018-02-01T17:41:15.961Z,96828.98
2018-02-01T17:43:44.406Z,96847.69
2018-02-01T17:46:12.855Z,96842.72
2018-02-01T17:48:42.038Z,96845.64
2018-02-01T17:51:10.415Z,96853.13
2018-02-01T17:53:38.913Z,96850.19
2018-02-01T17:56:19.858Z,96846.86
2018-02-01T17:58:48.267Z,96851.88
2018-02-01T18:01:17.368Z,96854.05
2018-02-01T18:03:46.492Z,96853.23
2018-02-01T18:06:14.855Z,96847.36
2018-02-01T18:08:43.216Z,96852.75
2018-02-01T18:11:12.338Z,96846.92
2018-02-01T18:13:40.729Z,96865.14
2018-02-01T18:16:09.094Z,96865.97
2018-02-01T18:18:37.483Z,96864.28
2018-02-01T18:21:05.827Z,96861.30
2018-02-01T18:23:34.236Z,96863.41
2018-02-01T18:26:02.598Z,96865.81
2018-02-01T18:28:30.989Z,96861.68
2018-02-01T18:30:59.353Z,96862.03
2018-02-01T18:33:27.692Z,96864.18
2018-02-01T18:35:56.053Z,96871.25
2018-02-01T18:38:24.445Z,96869.48
2018-02-01T18:40:52.798Z,96868.31
2018-02-01T18:43:21.291Z,96867.44
2018-02-01T18:45:49.686Z,96867.03
2018-02-01T18:48:18.072Z,96869.14
2018-02-01T18:50:46.412Z,96867.89
2018-02-01T18:53:14.775Z,96862.93
2018-02-01T18:55:43.233Z,96868.89
2018-02-01T18:58:11.586Z,96869.82
2018-02-01T19:00:39.885Z,96872.31
2018-02-01T19:03:08.335Z,96874.47
2018-02-01T19:05:36.667Z,96872.80
2018-02-01T19:08:04.998Z,96875.77
2018-02-01T19:10:33.363Z,96890.70
2018-02-01T19:13:01.750Z,96887.02
2018-02-01T19:15:30.153Z,96887.47
2018-02-01T19:17:58.620Z,96883.30
2018-02-01T19:20:27.750Z,96882.86
2018-02-01T19:22:56.096Z,96882.86
2018-02-01T19:25:25.243Z,96890.32
2018-02-01T19:27:53.603Z,96885.32
2018-02-01T19:30:22.020Z,96894.00
2018-02-01T19:32:50.399Z,96890.22
2018-02-01T19:35:18.773Z,96897.02
2018-02-01T19:37:47.151Z,96892.34
2018-02-01T19:40:15.507Z,96891.86
2018-02-01T19:42:43.838Z,96887.28
2018-02-01T19:45:12.921Z,96887.34
2018-02-01T19:47:41.291Z,96890.22
2018-02-01T19:50:09.653Z,96890.22
2018-02-01T19:52:38.022Z,96888.27
2018-02-01T19:55:06.477Z,96892.84
2018-02-01T19:57:34.904Z,96897.44
2018-02-01T20:00:03.306Z,96903.64
2018-02-01T20:02:32.416Z,96898.68
2018-02-01T20:05:00.808Z,96896.19
2018-02-01T20:07:29.211Z,96896.53
2018-02-01T20:09:57.514Z,96898.62
2018-02-01T20:12:25.880Z,96893.94
2018-02-01T20:14:54.229Z,96889.33
2018-02-01T20:17:22.660Z,96908.41
2018-02-01T20:19:51.479Z,96907.36
2018-02-01T20:22:20.241Z,96914.25
2018-02-01T20:24:49.570Z,96914.81
2018-02-01T20:27:18.060Z,96915.81
2018-02-01T20:29:47.528Z,96922.91
2018-02-01T20:32:17.042Z,96910.52
2018-02-01T20:34:45.431Z,96913.11
2018-02-01T20:37:13.859Z,96912.44
2018-02-01T20:39:42.215Z,96913.23
2018-02-01T20:42:10.852Z,96909.91
2018-02-01T20:44:39.617Z,96914.06
2018-02-01T20:47:09.027Z,96914.47
2018-02-01T20:49:38.771Z,96912.94
2018-02-01T20:52:07.379Z,96924.13
2018-02-01T20:54:36.514Z,96922.50
2018-02-01T20:57:05.098Z,96929.08
2018-02-01T20:59:33.559Z,96936.23
2018-02-01T21:02:01.942Z,96944.84
2018-02-01T21:04:30.358Z,96950.29
2018-02-01T21:06:59.554Z,96953.70
2018-02-01T21:09:27.981Z,96957.03
2018-02-01T21:11:56.328Z,96957.55
2018-02-01T21:14:24.716Z,96944.20
2018-02-01T21:16:53.091Z,96954.77
2018-02-01T21:19:21.409Z,96947.61
2018-02-01T21:21:49.757Z,96957.59
2018-02-01T21:24:18.087Z,96953.48
2018-02-01T21:26:46.632Z,96957.27
2018-02-01T21:29:15.137Z,96953.81
2018-02-01T21:31:43.571Z,96951.30
2018-02-01T21:34:12.031Z,96956.77
2018-02-01T21:36:41.651Z,96951.35
2018-02-01T21:39:10.662Z,96954.31
2018-02-01T21:41:39.143Z,96956.39
2018-02-01T21:44:07.572Z,96958.52
2018-02-01T21:46:35.922Z,96958.05
2018-02-01T21:49:05.139Z,96955.94
2018-02-01T21:51:34.921Z,96957.41
2018-02-01T21:54:08.638Z,96957.59
2018-02-01T21:56:43.345Z,96959.79
2018-02-01T21:59:12.852Z,96961.13
2018-02-01T22:01:42.879Z,96956.66
2018-02-01T22:04:11.259Z,96962.53
2018-02-01T22:06:42.073Z,96960.08
2018-02-01T22:09:24.494Z,96960.13
2018-02-01T22:11:54.692Z,96953.20
2018-02-01T22:14:23.107Z,96948.08
2018-02-01T22:16:51.358Z,96950.24
2018-02-01T22:19:19.656Z,96952.78
2018-02-01T22:21:50.204Z,96959.39
2018-02-01T22:24:19.504Z,96958.60
2018-02-01T22:26:47.948Z,96955.28
2018-02-01T22:29:16.336Z,96954.08
2018-02-01T22:31:44.695Z,96956.53
2018-02-01T22:34:13.019Z,96965.31
2018-02-01T22:36:41.365Z,96964.11
2018-02-01T22:39:09.793Z,96962.77
2018-02-01T22:41:38.882Z,96959.34
2018-02-01T22:44:07.292Z,96960.69
2018-02-01T22:46:35.626Z,96969.74
2018-02-01T22:49:03.972Z,96971.81
2018-02-01T22:51:32.283Z,96972.92
2018-02-01T22:54:00.627Z,96974.67
2018-02-01T22:56:29.671Z,96973.80
2018-02-01T22:58:58.733Z,96970.27
2018-02-01T23:01:27.068Z,96977.75
2018-02-01T23:03:55.394Z,96988.19
2018-02-01T23:06:23.729Z,96987.68
2018-02-01T23:08:52.054Z,96984.36
2018-02-01T23:11:20.370Z,96982.33
2018-02-01T23:13:48.710Z,96987.27
2018-02-01T23:16:17.068Z,96981.40
2018-02-01T23:18:45.408Z,96978.95
2018-02-01T23:21:13.759Z,96986.89
2018-02-01T23:23:42.841Z,96985.13
2018-02-01T23:26:11.146Z,96989.70
2018-02-01T23:28:40.162Z,96993.44
2018-02-01T23:31:27.552Z,96989.23
2018-02-01T23:33:57.956Z,96985.86
2018-02-01T23:36:32.432Z,96988.71
2018-02-01T23:39:15.699Z,96988.19
2018-02-01T23:41:46.233Z,96986.17
2018-02-01T23:44:15.405Z,96991.15
2018-02-01T23:46:48.637Z,96974.89
2018-02-01T23:49:22.484Z,96980.98
2018-02-01T23:52:13.477Z,96975.98
